sensor_id;sensor_type;location;lat;lon;timestamp;pressure;altitude;pressure_sealevel;temperature
74321;BMP280;62738;45.772;4.804;2022-12-11T00:00:05;99153.09;;;1.90
74321;BMP280;62738;45.772;4.804;2022-12-11T00:02:33;99152.91;;;2.13
74321;BMP280;62738;45.772;4.804;2022-12-11T00:05:00;99148.97;;;2.08
74321;BMP280;62738;45.772;4.804;2022-12-11T00:07:27;99150.09;;;1.94
74321;BMP280;62738;45.772;4.804;2022-12-11T00:09:53;99147.88;;;1.92
74321;BMP280;62738;45.772;4.804;2022-12-11T00:12:20;99151.69;;;2.08
74321;BMP280;62738;45.772;4.804;2022-12-11T00:14:47;99151.13;;;2.34
74321;BMP280;62738;45.772;4.804;2022-12-11T00:17:13;99168.22;;;2.21
74321;BMP280;62738;45.772;4.804;2022-12-11T00:19:40;99167.00;;;2.17
74321;BMP280;62738;45.772;4.804;2022-12-11T00:22:06;99178.06;;;2.30
74321;BMP280;62738;45.772;4.804;2022-12-11T00:24:33;99193.00;;;2.29
74321;BMP280;62738;45.772;4.804;2022-12-11T00:27:00;99192.56;;;2.25
74321;BMP280;62738;45.772;4.804;2022-12-11T00:29:26;99192.00;;;2.08
74321;BMP280;62738;45.772;4.804;2022-12-11T00:31:53;99190.00;;;2.08
74321;BMP280;62738;45.772;4.804;2022-12-11T00:34:19;99192.38;;;2.17
74321;BMP280;62738;45.772;4.804;2022-12-11T00:36:46;99191.81;;;2.24
74321;BMP280;62738;45.772;4.804;2022-12-11T00:39:13;99196.53;;;2.24
74321;BMP280;62738;45.772;4.804;2022-12-11T00:41:39;99191.63;;;2.17
74321;BMP280;62738;45.772;4.804;2022-12-11T00:44:06;99196.72;;;2.07
74321;BMP280;62738;45.772;4.804;2022-12-11T00:46:33;99184.75;;;1.86
74321;BMP280;62738;45.772;4.804;2022-12-11T00:48:59;99188.72;;;1.85
74321;BMP280;62738;45.772;4.804;2022-12-11T00:51:26;99176.59;;;1.80
74321;BMP280;62738;45.772;4.804;2022-12-11T00:53:52;99180.59;;;1.79
74321;BMP280;62738;45.772;4.804;2022-12-11T00:56:20;99178.19;;;1.70
74321;BMP280;62738;45.772;4.804;2022-12-11T00:58:48;99173.72;;;1.67
74321;BMP280;62738;45.772;4.804;2022-12-11T01:01:18;99169.88;;;1.51
74321;BMP280;62738;45.772;4.804;2022-12-11T01:03:46;99167.16;;;1.51
74321;BMP280;62738;45.772;4.804;2022-12-11T01:06:17;99171.22;;;1.39
74321;BMP280;62738;45.772;4.804;2022-12-11T01:08:45;99161.03;;;1.40
74321;BMP280;62738;45.772;4.804;2022-12-11T01:11:14;99170.75;;;1.35
74321;BMP280;62738;45.772;4.804;2022-12-11T01:13:41;99169.50;;;1.66
74321;BMP280;62738;45.772;4.804;2022-12-11T01:16:13;99176.78;;;1.58
74321;BMP280;62738;45.772;4.804;2022-12-11T01:18:40;99189.47;;;1.55
74321;BMP280;62738;45.772;4.804;2022-12-11T01:21:10;99194.31;;;1.38
74321;BMP280;62738;45.772;4.804;2022-12-11T01:23:37;99190.25;;;1.20
74321;BMP280;62738;45.772;4.804;2022-12-11T01:26:09;99194.91;;;1.25
74321;BMP280;62738;45.772;4.804;2022-12-11T01:28:36;99190.50;;;1.52
74321;BMP280;62738;45.772;4.804;2022-12-11T01:31:13;99188.28;;;1.51
74321;BMP280;62738;45.772;4.804;2022-12-11T01:33:40;99193.75;;;1.51
74321;BMP280;62738;45.772;4.804;2022-12-11T01:36:09;99198.47;;;1.50
74321;BMP280;62738;45.772;4.804;2022-12-11T01:38:35;99210.56;;;1.25
74321;BMP280;62738;45.772;4.804;2022-12-11T01:41:02;99201.59;;;1.30
74321;BMP280;62738;45.772;4.804;2022-12-11T01:43:29;99216.25;;;1.32
74321;BMP280;62738;45.772;4.804;2022-12-11T01:45:56;99217.41;;;1.43
74321;BMP280;62738;45.772;4.804;2022-12-11T01:48:27;99209.81;;;1.24
74321;BMP280;62738;45.772;4.804;2022-12-11T01:51:04;99212.28;;;1.28
74321;BMP280;62738;45.772;4.804;2022-12-11T01:53:38;99217.66;;;1.03
74321;BMP280;62738;45.772;4.804;2022-12-11T01:56:06;99218.66;;;1.00
74321;BMP280;62738;45.772;4.804;2022-12-11T01:58:38;99218.16;;;1.02
74321;BMP280;62738;45.772;4.804;2022-12-11T02:03:41;99207.75;;;0.95
74321;BMP280;62738;45.772;4.804;2022-12-11T02:06:29;99223.44;;;0.83
74321;BMP280;62738;45.772;4.804;2022-12-11T02:08:55;99219.88;;;1.05
74321;BMP280;62738;45.772;4.804;2022-12-11T02:11:30;99218.13;;;1.08
74321;BMP280;62738;45.772;4.804;2022-12-11T02:17:11;99226.31;;;1.08
74321;BMP280;62738;45.772;4.804;2022-12-11T02:19:54;99215.59;;;1.21
74321;BMP280;62738;45.772;4.804;2022-12-11T02:25:46;99227.09;;;1.02
74321;BMP280;62738;45.772;4.804;2022-12-11T02:28:38;99223.13;;;0.98
74321;BMP280;62738;45.772;4.804;2022-12-11T02:31:46;99230.88;;;0.88
74321;BMP280;62738;45.772;4.804;2022-12-11T02:34:24;99240.56;;;0.89
74321;BMP280;62738;45.772;4.804;2022-12-11T02:36:59;99240.72;;;1.08
74321;BMP280;62738;45.772;4.804;2022-12-11T02:39:28;99238.28;;;0.99
74321;BMP280;62738;45.772;4.804;2022-12-11T02:41:57;99232.19;;;1.23
74321;BMP280;62738;45.772;4.804;2022-12-11T02:44:26;99234.97;;;1.17
74321;BMP280;62738;45.772;4.804;2022-12-11T02:46:57;99233.56;;;0.99
74321;BMP280;62738;45.772;4.804;2022-12-11T02:49:25;99233.25;;;1.09
74321;BMP280;62738;45.772;4.804;2022-12-11T02:51:53;99220.34;;;1.09
74321;BMP280;62738;45.772;4.804;2022-12-11T02:54:26;99222.63;;;0.99
74321;BMP280;62738;45.772;4.804;2022-12-11T02:57:49;99216.50;;;0.88
74321;BMP280;62738;45.772;4.804;2022-12-11T03:00:07;99220.47;;;0.87
74321;BMP280;62738;45.772;4.804;2022-12-11T03:02:35;99219.88;;;1.05
74321;BMP280;62738;45.772;4.804;2022-12-11T03:05:03;99219.84;;;1.11
74321;BMP280;62738;45.772;4.804;2022-12-11T03:07:36;99215.44;;;0.96
74321;BMP280;62738;45.772;4.804;2022-12-11T03:10:06;99211.63;;;1.16
74321;BMP280;62738;45.772;4.804;2022-12-11T03:12:35;99205.03;;;0.95
74321;BMP280;62738;45.772;4.804;2022-12-11T03:15:05;99219.16;;;0.99
74321;BMP280;62738;45.772;4.804;2022-12-11T03:17:57;99211.03;;;0.88
74321;BMP280;62738;45.772;4.804;2022-12-11T03:20:40;99212.03;;;0.85
74321;BMP280;62738;45.772;4.804;2022-12-11T03:23:19;99209.44;;;1.09
74321;BMP280;62738;45.772;4.804;2022-12-11T03:25:53;99204.69;;;1.10
74321;BMP280;62738;45.772;4.804;2022-12-11T03:28:38;99200.38;;;1.25
74321;BMP280;62738;45.772;4.804;2022-12-11T03:31:11;99193.56;;;1.02
74321;BMP280;62738;45.772;4.804;2022-12-11T03:33:42;99193.31;;;1.06
74321;BMP280;62738;45.772;4.804;2022-12-11T03:36:12;99191.19;;;0.87
74321;BMP280;62738;45.772;4.804;2022-12-11T03:38:45;99197.06;;;0.97
74321;BMP280;62738;45.772;4.804;2022-12-11T03:41:16;99202.25;;;1.00
74321;BMP280;62738;45.772;4.804;2022-12-11T03:43:44;99200.19;;;1.18
74321;BMP280;62738;45.772;4.804;2022-12-11T03:46:12;99194.25;;;1.14
74321;BMP280;62738;45.772;4.804;2022-12-11T03:48:41;99194.53;;;1.10
74321;BMP280;62738;45.772;4.804;2022-12-11T03:51:10;99192.50;;;1.16
74321;BMP280;62738;45.772;4.804;2022-12-11T03:53:37;99181.88;;;1.07
74321;BMP280;62738;45.772;4.804;2022-12-11T03:56:05;99181.34;;;1.14
74321;BMP280;62738;45.772;4.804;2022-12-11T03:58:34;99182.84;;;1.10
74321;BMP280;62738;45.772;4.804;2022-12-11T04:01:00;99186.78;;;1.20
74321;BMP280;62738;45.772;4.804;2022-12-11T04:03:27;99181.09;;;1.12
74321;BMP280;62738;45.772;4.804;2022-12-11T04:05:54;99174.44;;;1.08
74321;BMP280;62738;45.772;4.804;2022-12-11T04:08:22;99181.16;;;1.01
74321;BMP280;62738;45.772;4.804;2022-12-11T04:10:49;99177.88;;;1.14
74321;BMP280;62738;45.772;4.804;2022-12-11T04:13:37;99172.66;;;1.10
74321;BMP280;62738;45.772;4.804;2022-12-11T04:16:04;99185.16;;;0.94
74321;BMP280;62738;45.772;4.804;2022-12-11T04:18:31;99181.69;;;0.94
74321;BMP280;62738;45.772;4.804;2022-12-11T04:21:16;99171.44;;;1.06
74321;BMP280;62738;45.772;4.804;2022-12-11T04:24:05;99170.22;;;1.01
74321;BMP280;62738;45.772;4.804;2022-12-11T04:26:42;99171.78;;;0.91
74321;BMP280;62738;45.772;4.804;2022-12-11T04:29:09;99165.69;;;0.68
74321;BMP280;62738;45.772;4.804;2022-12-11T04:31:36;99166.16;;;0.72
74321;BMP280;62738;45.772;4.804;2022-12-11T04:34:03;99166.66;;;0.76
74321;BMP280;62738;45.772;4.804;2022-12-11T04:36:29;99163.41;;;0.78
74321;BMP280;62738;45.772;4.804;2022-12-11T04:38:56;99165.75;;;0.51
74321;BMP280;62738;45.772;4.804;2022-12-11T04:41:23;99170.53;;;0.34
74321;BMP280;62738;45.772;4.804;2022-12-11T04:43:49;99171.75;;;0.39
74321;BMP280;62738;45.772;4.804;2022-12-11T04:46:18;99163.53;;;0.55
74321;BMP280;62738;45.772;4.804;2022-12-11T04:48:46;99171.47;;;0.48
74321;BMP280;62738;45.772;4.804;2022-12-11T04:51:20;99169.03;;;0.39
74321;BMP280;62738;45.772;4.804;2022-12-11T04:53:47;99165.03;;;0.45
74321;BMP280;62738;45.772;4.804;2022-12-11T04:56:15;99169.09;;;0.27
74321;BMP280;62738;45.772;4.804;2022-12-11T04:58:42;99165.06;;;0.34
74321;BMP280;62738;45.772;4.804;2022-12-11T05:01:11;99167.13;;;0.28
74321;BMP280;62738;45.772;4.804;2022-12-11T05:03:37;99169.25;;;0.41
74321;BMP280;62738;45.772;4.804;2022-12-11T05:06:05;99159.97;;;0.72
74321;BMP280;62738;45.772;4.804;2022-12-11T05:08:33;99159.25;;;0.65
74321;BMP280;62738;45.772;4.804;2022-12-11T05:11:02;99158.06;;;0.50
74321;BMP280;62738;45.772;4.804;2022-12-11T05:13:29;99163.78;;;0.46
74321;BMP280;62738;45.772;4.804;2022-12-11T05:15:57;99159.59;;;0.45
74321;BMP280;62738;45.772;4.804;2022-12-11T05:18:24;99156.41;;;0.88
74321;BMP280;62738;45.772;4.804;2022-12-11T05:21:02;99150.78;;;0.75
74321;BMP280;62738;45.772;4.804;2022-12-11T05:23:30;99154.00;;;0.73
74321;BMP280;62738;45.772;4.804;2022-12-11T05:25:59;99151.06;;;0.65
74321;BMP280;62738;45.772;4.804;2022-12-11T05:28:28;99144.25;;;0.89
74321;BMP280;62738;45.772;4.804;2022-12-11T05:31:03;99145.84;;;0.67
74321;BMP280;62738;45.772;4.804;2022-12-11T05:33:30;99140.25;;;0.43
74321;BMP280;62738;45.772;4.804;2022-12-11T05:35:57;99140.25;;;0.43
74321;BMP280;62738;45.772;4.804;2022-12-11T05:38:24;99139.69;;;0.56
74321;BMP280;62738;45.772;4.804;2022-12-11T05:40:58;99140.69;;;0.58
74321;BMP280;62738;45.772;4.804;2022-12-11T05:43:26;99147.91;;;0.45
74321;BMP280;62738;45.772;4.804;2022-12-11T05:45:53;99136.88;;;0.26
74321;BMP280;62738;45.772;4.804;2022-12-11T05:48:20;99138.84;;;0.25
74321;BMP280;62738;45.772;4.804;2022-12-11T05:51:00;99136.91;;;0.15
74321;BMP280;62738;45.772;4.804;2022-12-11T05:53:27;99137.00;;;0.45
74321;BMP280;62738;45.772;4.804;2022-12-11T05:56:00;99127.09;;;0.42
74321;BMP280;62738;45.772;4.804;2022-12-11T05:58:27;99132.16;;;0.26
74321;BMP280;62738;45.772;4.804;2022-12-11T06:00:54;99133.91;;;0.13
74321;BMP280;62738;45.772;4.804;2022-12-11T06:03:20;99127.47;;;0.10
74321;BMP280;62738;45.772;4.804;2022-12-11T06:05:47;99136.38;;;0.22
74321;BMP280;62738;45.772;4.804;2022-12-11T06:08:14;99136.38;;;0.22
74321;BMP280;62738;45.772;4.804;2022-12-11T06:10:48;99133.88;;;0.29
74321;BMP280;62738;45.772;4.804;2022-12-11T06:13:15;99129.69;;;0.69
74321;BMP280;62738;45.772;4.804;2022-12-11T06:15:42;99127.22;;;0.72
74321;BMP280;62738;45.772;4.804;2022-12-11T06:18:09;99124.44;;;0.77
74321;BMP280;62738;45.772;4.804;2022-12-11T06:20:36;99132.53;;;0.47
74321;BMP280;62738;45.772;4.804;2022-12-11T06:23:02;99132.66;;;0.30
74321;BMP280;62738;45.772;4.804;2022-12-11T06:25:29;99133.00;;;0.57
74321;BMP280;62738;45.772;4.804;2022-12-11T06:27:56;99125.84;;;0.48
74321;BMP280;62738;45.772;4.804;2022-12-11T06:30:23;99115.88;;;0.56
74321;BMP280;62738;45.772;4.804;2022-12-11T06:33:05;99131.31;;;0.43
74321;BMP280;62738;45.772;4.804;2022-12-11T06:35:31;99126.50;;;0.02
74321;BMP280;62738;45.772;4.804;2022-12-11T06:38:06;99131.25;;;-0.04
74321;BMP280;62738;45.772;4.804;2022-12-11T06:40:33;99130.75;;;-0.14
74321;BMP280;62738;45.772;4.804;2022-12-11T06:42:59;99128.50;;;0.02
74321;BMP280;62738;45.772;4.804;2022-12-11T06:45:26;99138.94;;;-0.08
74321;BMP280;62738;45.772;4.804;2022-12-11T06:47:53;99130.50;;;-0.05
74321;BMP280;62738;45.772;4.804;2022-12-11T06:50:19;99123.47;;;0.28
74321;BMP280;62738;45.772;4.804;2022-12-11T06:52:46;99123.00;;;0.24
74321;BMP280;62738;45.772;4.804;2022-12-11T06:55:12;99129.44;;;0.26
74321;BMP280;62738;45.772;4.804;2022-12-11T06:57:39;99135.47;;;-0.03
74321;BMP280;62738;45.772;4.804;2022-12-11T07:00:06;99131.50;;;-0.19
74321;BMP280;62738;45.772;4.804;2022-12-11T07:02:33;99121.59;;;-0.22
74321;BMP280;62738;45.772;4.804;2022-12-11T07:04:59;99116.41;;;-0.20
74321;BMP280;62738;45.772;4.804;2022-12-11T07:07:26;99109.66;;;0.04
74321;BMP280;62738;45.772;4.804;2022-12-11T07:09:52;99121.75;;;0.25
74321;BMP280;62738;45.772;4.804;2022-12-11T07:12:19;99128.03;;;-0.03
74321;BMP280;62738;45.772;4.804;2022-12-11T07:14:46;99124.09;;;-0.24
74321;BMP280;62738;45.772;4.804;2022-12-11T07:17:13;99131.75;;;-0.06
74321;BMP280;62738;45.772;4.804;2022-12-11T07:19:39;99139.75;;;0.45
74321;BMP280;62738;45.772;4.804;2022-12-11T07:22:06;99135.53;;;0.44
74321;BMP280;62738;45.772;4.804;2022-12-11T07:24:33;99142.22;;;0.48
74321;BMP280;62738;45.772;4.804;2022-12-11T07:26:59;99132.56;;;0.42
74321;BMP280;62738;45.772;4.804;2022-12-11T07:29:26;99128.19;;;0.27
74321;BMP280;62738;45.772;4.804;2022-12-11T07:31:53;99121.00;;;0.19
74321;BMP280;62738;45.772;4.804;2022-12-11T07:34:19;99124.97;;;0.18
74321;BMP280;62738;45.772;4.804;2022-12-11T07:36:46;99125.75;;;0.13
74321;BMP280;62738;45.772;4.804;2022-12-11T07:39:13;99125.31;;;-0.08
74321;BMP280;62738;45.772;4.804;2022-12-11T07:41:39;99124.25;;;0.12
74321;BMP280;62738;45.772;4.804;2022-12-11T07:44:06;99134.41;;;0.22
74321;BMP280;62738;45.772;4.804;2022-12-11T07:46:33;99130.19;;;0.16
74321;BMP280;62738;45.772;4.804;2022-12-11T07:49:00;99130.84;;;0.33
74321;BMP280;62738;45.772;4.804;2022-12-11T07:51:29;99143.25;;;0.34
74321;BMP280;62738;45.772;4.804;2022-12-11T07:53:58;99134.91;;;0.21
74321;BMP280;62738;45.772;4.804;2022-12-11T07:56:27;99141.31;;;0.29
74321;BMP280;62738;45.772;4.804;2022-12-11T07:58:53;99147.69;;;0.37
74321;BMP280;62738;45.772;4.804;2022-12-11T08:01:23;99144.34;;;0.66
74321;BMP280;62738;45.772;4.804;2022-12-11T08:03:52;99148.19;;;0.41
74321;BMP280;62738;45.772;4.804;2022-12-11T08:06:23;99142.47;;;0.39
74321;BMP280;62738;45.772;4.804;2022-12-11T08:08:50;99140.34;;;0.21
74321;BMP280;62738;45.772;4.804;2022-12-11T08:11:16;99135.19;;;0.00
74321;BMP280;62738;45.772;4.804;2022-12-11T08:13:43;99134.16;;;0.20
74321;BMP280;62738;45.772;4.804;2022-12-11T08:16:11;99135.88;;;0.29
74321;BMP280;62738;45.772;4.804;2022-12-11T08:18:40;99135.16;;;0.12
74321;BMP280;62738;45.772;4.804;2022-12-11T08:21:08;99134.47;;;-0.39
74321;BMP280;62738;45.772;4.804;2022-12-11T08:23:35;99134.22;;;-0.13
74321;BMP280;62738;45.772;4.804;2022-12-11T08:26:04;99124.66;;;0.32
74321;BMP280;62738;45.772;4.804;2022-12-11T08:28:31;99137.00;;;0.45
74321;BMP280;62738;45.772;4.804;2022-12-11T08:30:58;99142.72;;;0.41
74321;BMP280;62738;45.772;4.804;2022-12-11T08:33:25;99132.03;;;0.54
74321;BMP280;62738;45.772;4.804;2022-12-11T08:35:52;99129.91;;;0.30
74321;BMP280;62738;45.772;4.804;2022-12-11T08:38:19;99123.53;;;0.06
74321;BMP280;62738;45.772;4.804;2022-12-11T08:40:51;99126.06;;;-0.13
74321;BMP280;62738;45.772;4.804;2022-12-11T08:43:17;99137.47;;;-0.26
74321;BMP280;62738;45.772;4.804;2022-12-11T08:45:45;99141.69;;;-0.64
74321;BMP280;62738;45.772;4.804;2022-12-11T08:48:12;99145.88;;;-0.41
74321;BMP280;62738;45.772;4.804;2022-12-11T08:50:38;99144.16;;;-0.38
74321;BMP280;62738;45.772;4.804;2022-12-11T08:53:05;99137.69;;;-0.52
74321;BMP280;62738;45.772;4.804;2022-12-11T08:55:32;99129.28;;;-0.26
74321;BMP280;62738;45.772;4.804;2022-12-11T08:57:59;99132.44;;;0.00
74321;BMP280;62738;45.772;4.804;2022-12-11T09:00:25;99121.84;;;-0.20
74321;BMP280;62738;45.772;4.804;2022-12-11T09:02:52;99127.72;;;0.12
74321;BMP280;62738;45.772;4.804;2022-12-11T09:05:18;99130.44;;;0.12
74321;BMP280;62738;45.772;4.804;2022-12-11T09:07:45;99125.88;;;0.37
74321;BMP280;62738;45.772;4.804;2022-12-11T09:10:12;99126.63;;;0.38
74321;BMP280;62738;45.772;4.804;2022-12-11T09:12:38;99124.38;;;0.36
74321;BMP280;62738;45.772;4.804;2022-12-11T09:15:05;99119.38;;;0.51
74321;BMP280;62738;45.772;4.804;2022-12-11T09:17:33;99123.47;;;0.28
74321;BMP280;62738;45.772;4.804;2022-12-11T09:20:00;99123.00;;;0.24
74321;BMP280;62738;45.772;4.804;2022-12-11T09:22:26;99127.47;;;0.16
74321;BMP280;62738;45.772;4.804;2022-12-11T09:24:53;99123.28;;;0.04
74321;BMP280;62738;45.772;4.804;2022-12-11T09:27:20;99128.53;;;-0.15
74321;BMP280;62738;45.772;4.804;2022-12-11T09:29:47;99115.16;;;-0.30
74321;BMP280;62738;45.772;4.804;2022-12-11T09:32:14;99112.63;;;0.06
74321;BMP280;62738;45.772;4.804;2022-12-11T09:34:41;99118.63;;;-0.29
74321;BMP280;62738;45.772;4.804;2022-12-11T09:37:08;99119.63;;;-0.16
74321;BMP280;62738;45.772;4.804;2022-12-11T09:39:34;99112.34;;;0.20
74321;BMP280;62738;45.772;4.804;2022-12-11T09:42:14;99115.81;;;0.15
74321;BMP280;62738;45.772;4.804;2022-12-11T09:44:56;99111.66;;;0.61
74321;BMP280;62738;45.772;4.804;2022-12-11T09:47:38;99106.28;;;0.39
74321;BMP280;62738;45.772;4.804;2022-12-11T09:53:03;99106.38;;;0.68
74321;BMP280;62738;45.772;4.804;2022-12-11T09:56:01;99102.63;;;0.77
74321;BMP280;62738;45.772;4.804;2022-12-11T10:09:29;99078.41;;;1.28
74321;BMP280;62738;45.772;4.804;2022-12-11T10:15:18;99084.41;;;1.51
74321;BMP280;62738;45.772;4.804;2022-12-11T10:17:48;99075.50;;;0.90
74321;BMP280;62738;45.772;4.804;2022-12-11T10:22:53;99063.16;;;0.78
74321;BMP280;62738;45.772;4.804;2022-12-11T10:25:26;99073.25;;;0.48
74321;BMP280;62738;45.772;4.804;2022-12-11T10:27:54;99063.78;;;0.54
74321;BMP280;62738;45.772;4.804;2022-12-11T10:30:24;99063.97;;;0.21
74321;BMP280;62738;45.772;4.804;2022-12-11T10:33:19;99061.13;;;0.43
74321;BMP280;62738;45.772;4.804;2022-12-11T10:35:51;99057.16;;;0.44
74321;BMP280;62738;45.772;4.804;2022-12-11T10:38:30;99050.78;;;0.72
74321;BMP280;62738;45.772;4.804;2022-12-11T10:41:00;99045.63;;;0.62
74321;BMP280;62738;45.772;4.804;2022-12-11T10:43:55;99034.75;;;0.92
74321;BMP280;62738;45.772;4.804;2022-12-11T10:46:23;99031.16;;;1.09
74321;BMP280;62738;45.772;4.804;2022-12-11T10:49:21;99026.47;;;1.03
74321;BMP280;62738;45.772;4.804;2022-12-11T10:51:47;99026.56;;;1.47
74321;BMP280;62738;45.772;4.804;2022-12-11T10:54:25;99029.06;;;1.20
74321;BMP280;62738;45.772;4.804;2022-12-11T10:56:55;99022.63;;;0.88
74321;BMP280;62738;45.772;4.804;2022-12-11T10:59:26;99028.97;;;1.31
74321;BMP280;62738;45.772;4.804;2022-12-11T11:01:56;99009.56;;;1.54
74321;BMP280;62738;45.772;4.804;2022-12-11T11:04:29;99018.81;;;1.26
74321;BMP280;62738;45.772;4.804;2022-12-11T11:07:11;99015.50;;;1.09
74321;BMP280;62738;45.772;4.804;2022-12-11T11:09:39;99004.69;;;1.22
74321;BMP280;62738;45.772;4.804;2022-12-11T11:12:26;99022.69;;;1.61
74321;BMP280;62738;45.772;4.804;2022-12-11T11:15:06;99032.47;;;1.75
74321;BMP280;62738;45.772;4.804;2022-12-11T11:17:41;99035.59;;;2.03
74321;BMP280;62738;45.772;4.804;2022-12-11T11:20:25;99035.72;;;2.49
74321;BMP280;62738;45.772;4.804;2022-12-11T11:22:56;99029.69;;;2.37
74321;BMP280;62738;45.772;4.804;2022-12-11T11:25:26;99026.81;;;2.29
74321;BMP280;62738;45.772;4.804;2022-12-11T11:27:56;99025.75;;;2.32
74321;BMP280;62738;45.772;4.804;2022-12-11T11:30:33;99018.44;;;2.40
74321;BMP280;62738;45.772;4.804;2022-12-11T11:33:04;99009.19;;;2.75
74321;BMP280;62738;45.772;4.804;2022-12-11T11:35:36;99018.53;;;2.67
74321;BMP280;62738;45.772;4.804;2022-12-11T11:38:18;99010.03;;;2.70
74321;BMP280;62738;45.772;4.804;2022-12-11T11:41:17;99002.19;;;3.06
74321;BMP280;62738;45.772;4.804;2022-12-11T11:43:50;98996.19;;;3.08
74321;BMP280;62738;45.772;4.804;2022-12-11T11:46:28;98981.84;;;2.89
74321;BMP280;62738;45.772;4.804;2022-12-11T11:49:06;98974.13;;;2.42
74321;BMP280;62738;45.772;4.804;2022-12-11T11:51:42;98975.75;;;2.32
74321;BMP280;62738;45.772;4.804;2022-12-11T11:54:35;98971.56;;;2.31
74321;BMP280;62738;45.772;4.804;2022-12-11T11:57:12;98966.66;;;2.42
74321;BMP280;62738;45.772;4.804;2022-12-11T11:59:45;98959.03;;;2.35
74321;BMP280;62738;45.772;4.804;2022-12-11T12:02:15;98967.47;;;2.37
74321;BMP280;62738;45.772;4.804;2022-12-11T12:04:44;98955.81;;;2.18
74321;BMP280;62738;45.772;4.804;2022-12-11T12:07:41;98960.84;;;1.95
74321;BMP280;62738;45.772;4.804;2022-12-11T12:13:27;98950.03;;;2.40
74321;BMP280;62738;45.772;4.804;2022-12-11T12:16:33;98949.41;;;1.97
74321;BMP280;62738;45.772;4.804;2022-12-11T12:19:30;98945.28;;;2.09
74321;BMP280;62738;45.772;4.804;2022-12-11T12:22:55;98943.78;;;2.27
74321;BMP280;62738;45.772;4.804;2022-12-11T12:42:04;98917.44;;;2.24
74321;BMP280;62738;45.772;4.804;2022-12-11T12:45:08;98912.59;;;2.62
74321;BMP280;62738;45.772;4.804;2022-12-11T12:47:40;98919.41;;;2.55
74321;BMP280;62738;45.772;4.804;2022-12-11T12:50:18;98927.03;;;2.75
74321;BMP280;62738;45.772;4.804;2022-12-11T12:52:46;98926.84;;;2.87
74321;BMP280;62738;45.772;4.804;2022-12-11T13:03:24;98924.09;;;2.28
74321;BMP280;62738;45.772;4.804;2022-12-11T13:06:13;98923.47;;;2.35
74321;BMP280;62738;45.772;4.804;2022-12-11T13:08:48;98932.00;;;2.45
74321;BMP280;62738;45.772;4.804;2022-12-11T13:11:18;98936.09;;;2.84
74321;BMP280;62738;45.772;4.804;2022-12-11T13:14:21;98933.47;;;2.78
74321;BMP280;62738;45.772;4.804;2022-12-11T13:16:36;98932.50;;;2.75
74321;BMP280;62738;45.772;4.804;2022-12-11T13:19:15;98929.59;;;2.87
74321;BMP280;62738;45.772;4.804;2022-12-11T13:21:54;98940.63;;;2.81
74321;BMP280;62738;45.772;4.804;2022-12-11T13:26:49;98936.13;;;2.97
74321;BMP280;62738;45.772;4.804;2022-12-11T13:29:38;98935.88;;;2.82
74321;BMP280;62738;45.772;4.804;2022-12-11T13:34:37;98927.25;;;2.77
74321;BMP280;62738;45.772;4.804;2022-12-11T13:37:05;98924.41;;;2.70
74321;BMP280;62738;45.772;4.804;2022-12-11T13:39:38;98927.25;;;2.77
74321;BMP280;62738;45.772;4.804;2022-12-11T13:42:07;98924.84;;;2.87
74321;BMP280;62738;45.772;4.804;2022-12-11T13:44:46;98923.00;;;2.18
74321;BMP280;62738;45.772;4.804;2022-12-11T13:47:16;98915.97;;;2.23
74321;BMP280;62738;45.772;4.804;2022-12-11T13:49:47;98912.03;;;2.18
74321;BMP280;62738;45.772;4.804;2022-12-11T13:52:17;98902.47;;;2.12
74321;BMP280;62738;45.772;4.804;2022-12-11T13:54:52;98907.06;;;1.85
74321;BMP280;62738;45.772;4.804;2022-12-11T13:57:22;98919.88;;;1.77
74321;BMP280;62738;45.772;4.804;2022-12-11T13:59:55;98914.22;;;1.50
74321;BMP280;62738;45.772;4.804;2022-12-11T14:02:29;98917.75;;;1.45
74321;BMP280;62738;45.772;4.804;2022-12-11T14:05:01;98917.72;;;1.51
74321;BMP280;62738;45.772;4.804;2022-12-11T14:07:33;98919.41;;;1.73
74321;BMP280;62738;45.772;4.804;2022-12-11T14:10:06;98925.63;;;1.73
74321;BMP280;62738;45.772;4.804;2022-12-11T14:12:36;98915.31;;;1.98
74321;BMP280;62738;45.772;4.804;2022-12-11T14:15:03;98928.34;;;1.73
74321;BMP280;62738;45.772;4.804;2022-12-11T14:17:32;98930.94;;;1.84
74321;BMP280;62738;45.772;4.804;2022-12-11T14:20:02;98925.94;;;1.26
74321;BMP280;62738;45.772;4.804;2022-12-11T14:22:32;98931.16;;;1.24
74321;BMP280;62738;45.772;4.804;2022-12-11T14:25:11;98935.28;;;1.12
74321;BMP280;62738;45.772;4.804;2022-12-11T14:27:49;98934.75;;;0.89
74321;BMP280;62738;45.772;4.804;2022-12-11T14:30:26;98937.09;;;1.04
74321;BMP280;62738;45.772;4.804;2022-12-11T14:32:57;98935.56;;;1.09
74321;BMP280;62738;45.772;4.804;2022-12-11T14:35:37;98937.72;;;0.91
74321;BMP280;62738;45.772;4.804;2022-12-11T14:38:12;98940.97;;;0.60
74321;BMP280;62738;45.772;4.804;2022-12-11T14:40:43;98949.03;;;0.71
74321;BMP280;62738;45.772;4.804;2022-12-11T14:43:14;98944.47;;;0.55
74321;BMP280;62738;45.772;4.804;2022-12-11T14:45:47;98950.44;;;0.53
74321;BMP280;62738;45.772;4.804;2022-12-11T14:48:19;98937.53;;;0.54
74321;BMP280;62738;45.772;4.804;2022-12-11T14:50:50;98943.06;;;0.43
74321;BMP280;62738;45.772;4.804;2022-12-11T14:53:27;98951.22;;;0.13
74321;BMP280;62738;45.772;4.804;2022-12-11T14:55:57;98941.53;;;0.17
74321;BMP280;62738;45.772;4.804;2022-12-11T14:58:26;98945.69;;;0.29
74321;BMP280;62738;45.772;4.804;2022-12-11T15:01:06;98943.91;;;-0.09
74321;BMP280;62738;45.772;4.804;2022-12-11T15:03:37;98945.00;;;0.18
74321;BMP280;62738;45.772;4.804;2022-12-11T15:06:26;98941.69;;;0.30
74321;BMP280;62738;45.772;4.804;2022-12-11T15:08:54;98943.16;;;0.31
74321;BMP280;62738;45.772;4.804;2022-12-11T15:11:20;98945.06;;;0.37
74321;BMP280;62738;45.772;4.804;2022-12-11T15:14:00;98946.84;;;0.34
74321;BMP280;62738;45.772;4.804;2022-12-11T15:16:32;98944.94;;;0.29
74321;BMP280;62738;45.772;4.804;2022-12-11T15:19:00;98948.91;;;0.28
74321;BMP280;62738;45.772;4.804;2022-12-11T15:21:29;98943.94;;;0.26
74321;BMP280;62738;45.772;4.804;2022-12-11T15:23:58;98947.31;;;0.38
74321;BMP280;62738;45.772;4.804;2022-12-11T15:29:02;98956.19;;;0.44
74321;BMP280;62738;45.772;4.804;2022-12-11T15:31:30;98956.25;;;0.68
74321;BMP280;62738;45.772;4.804;2022-12-11T15:33:58;98956.03;;;0.66
74321;BMP280;62738;45.772;4.804;2022-12-11T15:36:33;98960.38;;;0.81
74321;BMP280;62738;45.772;4.804;2022-12-11T15:39:01;98957.19;;;0.77
74321;BMP280;62738;45.772;4.804;2022-12-11T15:41:28;98965.97;;;0.64
74321;BMP280;62738;45.772;4.804;2022-12-11T15:44:00;98951.69;;;0.52
74321;BMP280;62738;45.772;4.804;2022-12-11T15:46:27;98950.44;;;0.18
74321;BMP280;62738;45.772;4.804;2022-12-11T15:48:55;98949.44;;;0.21